sensor_id;sensor_type;location;lat;lon;timestamp;P1;durP1;ratioP1;P2;durP2;ratioP2
49890;SDS011;35780;55.568;37.492;2023-02-26T00:00:37;28.65;;;13.15;;
49890;SDS011;35780;55.568;37.492;2023-02-26T00:03:02;41.78;;;17.77;;
49890;SDS011;35780;55.568;37.492;2023-02-26T00:05:28;19.13;;;10.32;;
49890;SDS011;35780;55.568;37.492;2023-02-26T00:07:53;28.55;;;15.20;;
49890;SDS011;35780;55.568;37.492;2023-02-26T00:10:19;39.03;;;21.10;;
49890;SDS011;35780;55.568;37.492;2023-02-26T00:12:45;32.17;;;17.58;;
49890;SDS011;35780;55.568;37.492;2023-02-26T00:15:11;16.33;;;8.18;;
49890;SDS011;35780;55.568;37.492;2023-02-26T00:17:41;22.88;;;13.50;;
49890;SDS011;35780;55.568;37.492;2023-02-26T00:20:11;25.95;;;15.90;;
49890;SDS011;35780;55.568;37.492;2023-02-26T00:22:38;13.95;;;8.77;;
49890;SDS011;35780;55.568;37.492;2023-02-26T00:25:05;24.67;;;11.32;;
49890;SDS011;35780;55.568;37.492;2023-02-26T00:27:33;22.50;;;11.65;;
49890;SDS011;35780;55.568;37.492;2023-02-26T00:29:58;13.55;;;7.57;;
49890;SDS011;35780;55.568;37.492;2023-02-26T00:32:24;23.17;;;13.30;;
49890;SDS011;35780;55.568;37.492;2023-02-26T00:34:52;19.35;;;8.13;;
49890;SDS011;35780;55.568;37.492;2023-02-26T00:42:31;25.00;;;13.68;;
49890;SDS011;35780;55.568;37.492;2023-02-26T00:44:57;16.10;;;9.32;;
49890;SDS011;35780;55.568;37.492;2023-02-26T00:47:34;25.02;;;13.48;;
49890;SDS011;35780;55.568;37.492;2023-02-26T00:50:19;18.83;;;10.20;;
49890;SDS011;35780;55.568;37.492;2023-02-26T00:55:27;20.60;;;10.52;;
49890;SDS011;35780;55.568;37.492;2023-02-26T00:57:54;21.50;;;12.70;;
49890;SDS011;35780;55.568;37.492;2023-02-26T01:00:19;12.13;;;5.65;;
49890;SDS011;35780;55.568;37.492;2023-02-26T01:02:46;15.20;;;9.70;;
49890;SDS011;35780;55.568;37.492;2023-02-26T01:05:12;11.15;;;5.03;;
49890;SDS011;35780;55.568;37.492;2023-02-26T01:07:41;18.45;;;10.52;;
49890;SDS011;35780;55.568;37.492;2023-02-26T01:10:09;13.68;;;7.72;;
49890;SDS011;35780;55.568;37.492;2023-02-26T01:12:37;12.57;;;7.30;;
49890;SDS011;35780;55.568;37.492;2023-02-26T01:15:03;19.63;;;9.85;;
49890;SDS011;35780;55.568;37.492;2023-02-26T01:20:19;10.40;;;6.18;;
49890;SDS011;35780;55.568;37.492;2023-02-26T01:25:33;12.05;;;5.03;;
49890;SDS011;35780;55.568;37.492;2023-02-26T01:28:01;15.75;;;8.05;;
49890;SDS011;35780;55.568;37.492;2023-02-26T01:30:27;13.55;;;7.63;;
49890;SDS011;35780;55.568;37.492;2023-02-26T01:33:01;8.05;;;4.90;;
49890;SDS011;35780;55.568;37.492;2023-02-26T01:35:45;10.98;;;7.50;;
49890;SDS011;35780;55.568;37.492;2023-02-26T01:44:18;9.20;;;5.13;;
49890;SDS011;35780;55.568;37.492;2023-02-26T01:49:31;5.65;;;3.72;;
49890;SDS011;35780;55.568;37.492;2023-02-26T01:52:03;15.93;;;9.50;;
49890;SDS011;35780;55.568;37.492;2023-02-26T01:54:49;9.45;;;5.03;;
49890;SDS011;35780;55.568;37.492;2023-02-26T01:57:16;19.83;;;11.05;;
49890;SDS011;35780;55.568;37.492;2023-02-26T01:59:45;15.38;;;8.93;;
49890;SDS011;35780;55.568;37.492;2023-02-26T02:02:12;14.60;;;9.63;;
49890;SDS011;35780;55.568;37.492;2023-02-26T02:04:42;8.30;;;3.85;;
49890;SDS011;35780;55.568;37.492;2023-02-26T02:07:08;12.05;;;7.97;;
49890;SDS011;35780;55.568;37.492;2023-02-26T02:09:34;14.55;;;9.57;;
49890;SDS011;35780;55.568;37.492;2023-02-26T02:23:25;15.00;;;8.85;;
49890;SDS011;35780;55.568;37.492;2023-02-26T02:28:58;10.77;;;5.22;;
49890;SDS011;35780;55.568;37.492;2023-02-26T02:31:44;7.95;;;4.88;;
49890;SDS011;35780;55.568;37.492;2023-02-26T02:34:32;13.50;;;8.05;;
49890;SDS011;35780;55.568;37.492;2023-02-26T02:39:51;10.45;;;5.53;;
49890;SDS011;35780;55.568;37.492;2023-02-26T02:42:24;11.05;;;6.72;;
49890;SDS011;35780;55.568;37.492;2023-02-26T02:45:24;11.73;;;7.25;;
49890;SDS011;35780;55.568;37.492;2023-02-26T02:47:51;9.48;;;5.18;;
49890;SDS011;35780;55.568;37.492;2023-02-26T02:50:33;14.07;;;9.27;;
49890;SDS011;35780;55.568;37.492;2023-02-26T02:53:10;13.23;;;7.25;;
49890;SDS011;35780;55.568;37.492;2023-02-26T02:55:51;12.43;;;7.35;;
49890;SDS011;35780;55.568;37.492;2023-02-26T02:58:28;12.15;;;7.85;;
49890;SDS011;35780;55.568;37.492;2023-02-26T03:00:57;13.05;;;7.93;;
49890;SDS011;35780;55.568;37.492;2023-02-26T03:06:01;15.23;;;8.40;;
49890;SDS011;35780;55.568;37.492;2023-02-26T03:08:30;10.32;;;7.28;;
49890;SDS011;35780;55.568;37.492;2023-02-26T03:11:00;13.15;;;7.85;;
49890;SDS011;35780;55.568;37.492;2023-02-26T03:13:25;14.38;;;10.00;;
49890;SDS011;35780;55.568;37.492;2023-02-26T03:18:50;15.15;;;8.05;;
49890;SDS011;35780;55.568;37.492;2023-02-26T03:24:28;13.82;;;7.57;;
49890;SDS011;35780;55.568;37.492;2023-02-26T03:26:59;11.32;;;7.90;;
49890;SDS011;35780;55.568;37.492;2023-02-26T03:29:41;9.88;;;5.60;;
49890;SDS011;35780;55.568;37.492;2023-02-26T03:32:15;13.45;;;8.57;;
49890;SDS011;35780;55.568;37.492;2023-02-26T03:37:33;8.98;;;6.10;;
49890;SDS011;35780;55.568;37.492;2023-02-26T03:45:15;11.68;;;8.35;;
49890;SDS011;35780;55.568;37.492;2023-02-26T03:47:45;13.05;;;8.68;;
49890;SDS011;35780;55.568;37.492;2023-02-26T03:50:15;13.38;;;7.63;;
49890;SDS011;35780;55.568;37.492;2023-02-26T03:52:44;14.35;;;8.40;;
49890;SDS011;35780;55.568;37.492;2023-02-26T03:55:12;13.98;;;8.68;;
49890;SDS011;35780;55.568;37.492;2023-02-26T03:57:39;13.32;;;8.90;;
49890;SDS011;35780;55.568;37.492;2023-02-26T04:00:05;13.07;;;8.68;;
49890;SDS011;35780;55.568;37.492;2023-02-26T04:02:47;12.25;;;9.27;;
49890;SDS011;35780;55.568;37.492;2023-02-26T04:05:21;14.77;;;9.43;;
49890;SDS011;35780;55.568;37.492;2023-02-26T04:07:54;13.05;;;9.50;;
49890;SDS011;35780;55.568;37.492;2023-02-26T04:10:23;14.32;;;8.02;;
49890;SDS011;35780;55.568;37.492;2023-02-26T04:15:19;11.02;;;6.38;;
49890;SDS011;35780;55.568;37.492;2023-02-26T04:17:44;10.15;;;6.68;;
49890;SDS011;35780;55.568;37.492;2023-02-26T04:20:10;12.52;;;6.97;;
49890;SDS011;35780;55.568;37.492;2023-02-26T04:22:36;11.05;;;7.22;;
49890;SDS011;35780;55.568;37.492;2023-02-26T04:25:02;9.55;;;5.28;;
49890;SDS011;35780;55.568;37.492;2023-02-26T04:27:28;7.18;;;4.53;;
49890;SDS011;35780;55.568;37.492;2023-02-26T04:29:53;10.32;;;5.50;;
49890;SDS011;35780;55.568;37.492;2023-02-26T04:32:19;7.57;;;4.97;;
49890;SDS011;35780;55.568;37.492;2023-02-26T04:34:44;6.35;;;4.30;;
49890;SDS011;35780;55.568;37.492;2023-02-26T04:37:10;8.10;;;5.03;;
49890;SDS011;35780;55.568;37.492;2023-02-26T04:39:35;6.03;;;4.43;;
49890;SDS011;35780;55.568;37.492;2023-02-26T04:42:01;7.80;;;5.05;;
49890;SDS011;35780;55.568;37.492;2023-02-26T04:44:28;8.18;;;4.03;;
49890;SDS011;35780;55.568;37.492;2023-02-26T04:46:54;6.45;;;3.95;;
49890;SDS011;35780;55.568;37.492;2023-02-26T04:49:20;3.97;;;2.70;;
49890;SDS011;35780;55.568;37.492;2023-02-26T04:51:46;5.45;;;3.47;;
49890;SDS011;35780;55.568;37.492;2023-02-26T04:54:11;3.58;;;2.50;;
49890;SDS011;35780;55.568;37.492;2023-02-26T04:56:37;3.95;;;2.05;;
49890;SDS011;35780;55.568;37.492;2023-02-26T04:59:02;4.97;;;2.60;;
49890;SDS011;35780;55.568;37.492;2023-02-26T05:01:28;3.90;;;2.45;;
49890;SDS011;35780;55.568;37.492;2023-02-26T05:03:53;3.47;;;2.10;;
49890;SDS011;35780;55.568;37.492;2023-02-26T05:06:19;4.72;;;2.33;;
49890;SDS011;35780;55.568;37.492;2023-02-26T05:08:46;2.83;;;1.73;;
49890;SDS011;35780;55.568;37.492;2023-02-26T05:11:12;2.15;;;1.60;;
49890;SDS011;35780;55.568;37.492;2023-02-26T05:13:37;4.20;;;2.22;;
49890;SDS011;35780;55.568;37.492;2023-02-26T05:16:04;3.83;;;1.42;;
49890;SDS011;35780;55.568;37.492;2023-02-26T05:18:30;3.55;;;1.75;;
49890;SDS011;35780;55.568;37.492;2023-02-26T05:20:56;1.40;;;1.10;;
49890;SDS011;35780;55.568;37.492;2023-02-26T05:23:22;1.75;;;1.00;;
49890;SDS011;35780;55.568;37.492;2023-02-26T05:25:48;2.47;;;1.38;;
49890;SDS011;35780;55.568;37.492;2023-02-26T05:28:14;4.35;;;1.80;;
49890;SDS011;35780;55.568;37.492;2023-02-26T05:30:41;4.07;;;2.03;;
49890;SDS011;35780;55.568;37.492;2023-02-26T05:33:07;2.90;;;1.80;;
49890;SDS011;35780;55.568;37.492;2023-02-26T05:35:33;3.00;;;1.50;;
49890;SDS011;35780;55.568;37.492;2023-02-26T05:38:00;3.28;;;1.67;;
49890;SDS011;35780;55.568;37.492;2023-02-26T05:40:26;4.60;;;2.42;;
49890;SDS011;35780;55.568;37.492;2023-02-26T05:42:52;2.55;;;1.60;;
49890;SDS011;35780;55.568;37.492;2023-02-26T05:45:18;2.85;;;1.10;;
49890;SDS011;35780;55.568;37.492;2023-02-26T05:47:43;1.13;;;0.85;;
49890;SDS011;35780;55.568;37.492;2023-02-26T05:50:10;2.08;;;1.30;;
49890;SDS011;35780;55.568;37.492;2023-02-26T05:52:36;12.68;;;2.70;;
49890;SDS011;35780;55.568;37.492;2023-02-26T05:55:03;2.53;;;1.05;;
49890;SDS011;35780;55.568;37.492;2023-02-26T05:57:32;2.67;;;1.60;;
49890;SDS011;35780;55.568;37.492;2023-02-26T05:59:58;1.63;;;1.23;;
49890;SDS011;35780;55.568;37.492;2023-02-26T06:02:24;1.52;;;1.10;;
49890;SDS011;35780;55.568;37.492;2023-02-26T06:04:50;1.23;;;1.00;;
49890;SDS011;35780;55.568;37.492;2023-02-26T06:07:15;2.13;;;1.40;;
49890;SDS011;35780;55.568;37.492;2023-02-26T06:09:41;2.42;;;1.60;;
49890;SDS011;35780;55.568;37.492;2023-02-26T06:12:07;2.50;;;1.50;;
49890;SDS011;35780;55.568;37.492;2023-02-26T06:14:33;2.00;;;1.40;;
49890;SDS011;35780;55.568;37.492;2023-02-26T06:16:59;1.88;;;1.27;;
49890;SDS011;35780;55.568;37.492;2023-02-26T06:19:24;1.80;;;1.10;;
49890;SDS011;35780;55.568;37.492;2023-02-26T06:21:50;1.20;;;0.90;;
49890;SDS011;35780;55.568;37.492;2023-02-26T06:24:17;2.85;;;1.58;;
49890;SDS011;35780;55.568;37.492;2023-02-26T06:26:42;1.38;;;1.13;;
49890;SDS011;35780;55.568;37.492;2023-02-26T06:29:08;4.82;;;1.83;;
49890;SDS011;35780;55.568;37.492;2023-02-26T06:31:33;3.90;;;1.77;;
49890;SDS011;35780;55.568;37.492;2023-02-26T06:33:59;4.65;;;1.98;;
49890;SDS011;35780;55.568;37.492;2023-02-26T06:36:25;3.28;;;2.00;;
49890;SDS011;35780;55.568;37.492;2023-02-26T06:38:50;3.22;;;1.98;;
49890;SDS011;35780;55.568;37.492;2023-02-26T06:41:16;4.38;;;1.38;;
49890;SDS011;35780;55.568;37.492;2023-02-26T06:43:41;4.18;;;1.63;;
49890;SDS011;35780;55.568;37.492;2023-02-26T06:46:07;2.08;;;1.65;;
49890;SDS011;35780;55.568;37.492;2023-02-26T06:48:32;3.05;;;1.65;;
49890;SDS011;35780;55.568;37.492;2023-02-26T06:50:58;5.40;;;2.20;;
49890;SDS011;35780;55.568;37.492;2023-02-26T06:53:24;3.33;;;1.90;;
49890;SDS011;35780;55.568;37.492;2023-02-26T06:55:50;4.78;;;2.85;;
49890;SDS011;35780;55.568;37.492;2023-02-26T06:58:18;2.47;;;1.58;;
49890;SDS011;35780;55.568;37.492;2023-02-26T07:00:44;2.47;;;1.55;;
49890;SDS011;35780;55.568;37.492;2023-02-26T07:03:13;4.32;;;2.20;;
49890;SDS011;35780;55.568;37.492;2023-02-26T07:05:40;2.15;;;1.58;;
49890;SDS011;35780;55.568;37.492;2023-02-26T07:08:07;3.75;;;2.40;;
49890;SDS011;35780;55.568;37.492;2023-02-26T07:10:33;2.25;;;1.48;;
49890;SDS011;35780;55.568;37.492;2023-02-26T07:13:00;5.57;;;1.85;;
49890;SDS011;35780;55.568;37.492;2023-02-26T07:15:27;1.90;;;1.50;;
49890;SDS011;35780;55.568;37.492;2023-02-26T07:17:53;2.75;;;1.73;;
49890;SDS011;35780;55.568;37.492;2023-02-26T07:20:21;5.20;;;1.85;;
49890;SDS011;35780;55.568;37.492;2023-02-26T07:22:47;3.70;;;2.22;;
49890;SDS011;35780;55.568;37.492;2023-02-26T07:25:12;2.97;;;1.83;;
49890;SDS011;35780;55.568;37.492;2023-02-26T07:27:38;3.40;;;1.88;;
49890;SDS011;35780;55.568;37.492;2023-02-26T07:30:04;3.75;;;2.30;;
49890;SDS011;35780;55.568;37.492;2023-02-26T07:32:33;2.90;;;1.90;;
49890;SDS011;35780;55.568;37.492;2023-02-26T07:35:00;2.65;;;1.48;;
49890;SDS011;35780;55.568;37.492;2023-02-26T07:37:28;2.72;;;1.92;;
49890;SDS011;35780;55.568;37.492;2023-02-26T07:39:54;3.83;;;1.50;;
49890;SDS011;35780;55.568;37.492;2023-02-26T07:42:19;3.97;;;1.98;;
49890;SDS011;35780;55.568;37.492;2023-02-26T07:44:45;2.58;;;1.60;;
49890;SDS011;35780;55.568;37.492;2023-02-26T07:47:11;3.90;;;1.48;;
49890;SDS011;35780;55.568;37.492;2023-02-26T07:49:38;3.05;;;1.73;;
49890;SDS011;35780;55.568;37.492;2023-02-26T07:52:04;7.60;;;1.80;;
49890;SDS011;35780;55.568;37.492;2023-02-26T07:54:32;2.22;;;1.58;;
49890;SDS011;35780;55.568;37.492;2023-02-26T07:56:58;2.00;;;1.48;;
49890;SDS011;35780;55.568;37.492;2023-02-26T07:59:24;3.00;;;1.88;;
49890;SDS011;35780;55.568;37.492;2023-02-26T08:01:50;2.85;;;1.75;;
49890;SDS011;35780;55.568;37.492;2023-02-26T08:04:16;2.47;;;1.52;;
49890;SDS011;35780;55.568;37.492;2023-02-26T08:06:41;2.63;;;1.27;;
49890;SDS011;35780;55.568;37.492;2023-02-26T08:09:07;2.83;;;1.85;;
49890;SDS011;35780;55.568;37.492;2023-02-26T08:11:33;1.70;;;1.17;;
49890;SDS011;35780;55.568;37.492;2023-02-26T08:14:01;2.40;;;1.50;;
49890;SDS011;35780;55.568;37.492;2023-02-26T08:16:27;2.83;;;1.40;;
49890;SDS011;35780;55.568;37.492;2023-02-26T08:18:52;2.00;;;1.20;;
49890;SDS011;35780;55.568;37.492;2023-02-26T08:21:18;3.53;;;2.50;;
49890;SDS011;35780;55.568;37.492;2023-02-26T08:23:43;4.57;;;1.95;;
49890;SDS011;35780;55.568;37.492;2023-02-26T08:26:09;3.47;;;2.33;;
49890;SDS011;35780;55.568;37.492;2023-02-26T08:28:37;2.22;;;1.52;;
49890;SDS011;35780;55.568;37.492;2023-02-26T08:31:03;4.47;;;2.08;;
49890;SDS011;35780;55.568;37.492;2023-02-26T08:33:29;4.53;;;1.73;;
49890;SDS011;35780;55.568;37.492;2023-02-26T08:35:55;2.78;;;1.70;;
49890;SDS011;35780;55.568;37.492;2023-02-26T08:38:24;3.20;;;0.90;;
49890;SDS011;35780;55.568;37.492;2023-02-26T08:40:50;1.88;;;1.02;;
49890;SDS011;35780;55.568;37.492;2023-02-26T08:43:17;1.75;;;1.13;;
49890;SDS011;35780;55.568;37.492;2023-02-26T08:45:43;2.47;;;1.15;;
49890;SDS011;35780;55.568;37.492;2023-02-26T08:48:09;1.48;;;1.20;;
49890;SDS011;35780;55.568;37.492;2023-02-26T08:50:37;2.83;;;1.45;;
49890;SDS011;35780;55.568;37.492;2023-02-26T08:53:03;1.77;;;1.15;;
49890;SDS011;35780;55.568;37.492;2023-02-26T08:55:30;1.52;;;1.08;;
49890;SDS011;35780;55.568;37.492;2023-02-26T08:57:55;1.60;;;1.20;;
49890;SDS011;35780;55.568;37.492;2023-02-26T09:00:21;1.70;;;1.23;;
49890;SDS011;35780;55.568;37.492;2023-02-26T09:02:47;1.95;;;1.27;;
49890;SDS011;35780;55.568;37.492;2023-02-26T09:05:13;1.55;;;1.17;;
49890;SDS011;35780;55.568;37.492;2023-02-26T09:07:39;2.75;;;1.13;;
49890;SDS011;35780;55.568;37.492;2023-02-26T09:10:06;1.17;;;0.90;;
49890;SDS011;35780;55.568;37.492;2023-02-26T09:12:32;1.95;;;1.10;;
49890;SDS011;35780;55.568;37.492;2023-02-26T09:15:02;0.95;;;0.80;;
49890;SDS011;35780;55.568;37.492;2023-02-26T09:17:29;2.28;;;1.15;;
49890;SDS011;35780;55.568;37.492;2023-02-26T09:19:55;1.88;;;1.20;;
49890;SDS011;35780;55.568;37.492;2023-02-26T09:22:23;3.13;;;1.35;;
49890;SDS011;35780;55.568;37.492;2023-02-26T09:24:48;2.78;;;1.77;;
49890;SDS011;35780;55.568;37.492;2023-02-26T09:27:15;1.50;;;0.90;;
49890;SDS011;35780;55.568;37.492;2023-02-26T09:29:41;2.28;;;1.33;;
49890;SDS011;35780;55.568;37.492;2023-02-26T09:32:07;3.42;;;1.73;;
49890;SDS011;35780;55.568;37.492;2023-02-26T09:34:33;1.20;;;0.88;;
49890;SDS011;35780;55.568;37.492;2023-02-26T09:37:04;5.07;;;2.17;;
49890;SDS011;35780;55.568;37.492;2023-02-26T09:39:31;2.05;;;1.27;;
49890;SDS011;35780;55.568;37.492;2023-02-26T09:41:58;2.83;;;1.33;;
49890;SDS011;35780;55.568;37.492;2023-02-26T09:47:03;1.58;;;1.20;;
49890;SDS011;35780;55.568;37.492;2023-02-26T09:52:37;5.43;;;1.17;;
49890;SDS011;35780;55.568;37.492;2023-02-26T09:55:08;2.38;;;1.15;;
49890;SDS011;35780;55.568;37.492;2023-02-26T09:57:43;3.90;;;1.77;;
49890;SDS011;35780;55.568;37.492;2023-02-26T10:00:26;2.80;;;1.42;;
49890;SDS011;35780;55.568;37.492;2023-02-26T10:08:13;3.13;;;1.52;;
49890;SDS011;35780;55.568;37.492;2023-02-26T10:10:55;3.60;;;1.70;;
49890;SDS011;35780;55.568;37.492;2023-02-26T10:13:39;3.67;;;2.05;;
49890;SDS011;35780;55.568;37.492;2023-02-26T10:16:14;2.90;;;1.50;;
49890;SDS011;35780;55.568;37.492;2023-02-26T10:18:46;2.40;;;1.33;;
49890;SDS011;35780;55.568;37.492;2023-02-26T10:21:16;2.80;;;1.40;;
49890;SDS011;35780;55.568;37.492;2023-02-26T10:26:24;2.42;;;1.35;;
49890;SDS011;35780;55.568;37.492;2023-02-26T10:29:01;2.13;;;1.30;;
49890;SDS011;35780;55.568;37.492;2023-02-26T10:41:59;4.15;;;1.70;;
49890;SDS011;35780;55.568;37.492;2023-02-26T10:44:39;2.47;;;1.17;;
49890;SDS011;35780;55.568;37.492;2023-02-26T10:49:54;2.20;;;1.20;;
49890;SDS011;35780;55.568;37.492;2023-02-26T10:52:24;2.33;;;1.35;;
49890;SDS011;35780;55.568;37.492;2023-02-26T10:57:29;2.78;;;1.65;;
49890;SDS011;35780;55.568;37.492;2023-02-26T11:00:02;2.78;;;1.67;;
49890;SDS011;35780;55.568;37.492;2023-02-26T11:02:34;2.38;;;1.15;;
49890;SDS011;35780;55.568;37.492;2023-02-26T11:07:29;2.15;;;1.13;;
49890;SDS011;35780;55.568;37.492;2023-02-26T11:09:55;2.30;;;1.52;;
49890;SDS011;35780;55.568;37.492;2023-02-26T11:12:21;1.15;;;0.90;;
49890;SDS011;35780;55.568;37.492;2023-02-26T11:14:48;2.17;;;1.23;;
49890;SDS011;35780;55.568;37.492;2023-02-26T11:17:17;3.35;;;1.65;;
49890;SDS011;35780;55.568;37.492;2023-02-26T11:19:48;1.73;;;1.30;;
49890;SDS011;35780;55.568;37.492;2023-02-26T11:22:21;5.85;;;1.80;;
49890;SDS011;35780;55.568;37.492;2023-02-26T11:24:47;8.70;;;1.73;;
49890;SDS011;35780;55.568;37.492;2023-02-26T11:27:25;2.22;;;1.40;;
49890;SDS011;35780;55.568;37.492;2023-02-26T11:29:56;2.85;;;1.25;;
49890;SDS011;35780;55.568;37.492;2023-02-26T11:32:28;5.63;;;2.08;;
49890;SDS011;35780;55.568;37.492;2023-02-26T11:37:30;1.00;;;0.80;;
49890;SDS011;35780;55.568;37.492;2023-02-26T11:40:03;1.83;;;1.08;;
49890;SDS011;35780;55.568;37.492;2023-02-26T11:42:34;1.10;;;0.88;;
49890;SDS011;35780;55.568;37.492;2023-02-26T11:45:03;4.28;;;1.80;;
49890;SDS011;35780;55.568;37.492;2023-02-26T11:47:30;2.92;;;1.73;;
49890;SDS011;35780;55.568;37.492;2023-02-26T11:49:59;2.58;;;1.48;;
49890;SDS011;35780;55.568;37.492;2023-02-26T11:52:39;3.05;;;1.38;;
49890;SDS011;35780;55.568;37.492;2023-02-26T11:55:17;2.03;;;1.20;;
49890;SDS011;35780;55.568;37.492;2023-02-26T11:57:44;5.38;;;1.73;;
49890;SDS011;35780;55.568;37.492;2023-02-26T12:00:17;4.47;;;1.40;;
49890;SDS011;35780;55.568;37.492;2023-02-26T12:02:50;3.72;;;1.67;;
49890;SDS011;35780;55.568;37.492;2023-02-26T12:05:16;3.65;;;1.83;;
49890;SDS011;35780;55.568;37.492;2023-02-26T12:07:42;3.63;;;1.70;;
49890;SDS011;35780;55.568;37.492;2023-02-26T12:10:20;2.65;;;1.60;;
49890;SDS011;35780;55.568;37.492;2023-02-26T12:15:56;3.58;;;1.77;;
49890;SDS011;35780;55.568;37.492;2023-02-26T12:18:39;4.43;;;1.52;;
49890;SDS011;35780;55.568;37.492;2023-02-26T12:26:58;13.98;;;3.03;;
49890;SDS011;35780;55.568;37.492;2023-02-26T12:32:27;6.10;;;3.85;;
49890;SDS011;35780;55.568;37.492;2023-02-26T12:45:40;5.28;;;3.22;;
49890;SDS011;35780;55.568;37.492;2023-02-26T13:04:59;7.97;;;4.53;;
49890;SDS011;35780;55.568;37.492;2023-02-26T13:15:50;2.63;;;1.98;;
49890;SDS011;35780;55.568;37.492;2023-02-26T13:21:27;4.80;;;3.00;;
49890;SDS011;35780;55.568;37.492;2023-02-26T13:24:01;6.70;;;3.63;;
49890;SDS011;35780;55.568;37.492;2023-02-26T13:26:30;4.72;;;2.92;;
49890;SDS011;35780;55.568;37.492;2023-02-26T13:31:42;4.78;;;3.00;;
49890;SDS011;35780;55.568;37.492;2023-02-26T13:37:09;7.03;;;4.20;;
49890;SDS011;35780;55.568;37.492;2023-02-26T13:40:03;6.00;;;3.70;;
49890;SDS011;35780;55.568;37.492;2023-02-26T13:48:10;5.68;;;3.80;;
49890;SDS011;35780;55.568;37.492;2023-02-26T13:53:53;5.78;;;3.42;;
49890;SDS011;35780;55.568;37.492;2023-02-26T13:56:41;8.48;;;4.22;;
49890;SDS011;35780;55.568;37.492;2023-02-26T14:06:44;7.32;;;4.22;;
49890;SDS011;35780;55.568;37.492;2023-02-26T14:14:24;8.32;;;4.82;;
49890;SDS011;35780;55.568;37.492;2023-02-26T14:17:17;10.52;;;6.28;;
49890;SDS011;35780;55.568;37.492;2023-02-26T14:30:46;12.45;;;6.45;;
49890;SDS011;35780;55.568;37.492;2023-02-26T14:33:17;10.35;;;5.40;;
49890;SDS011;35780;55.568;37.492;2023-02-26T14:35:48;8.45;;;5.03;;
49890;SDS011;35780;55.568;37.492;2023-02-26T14:38:29;9.50;;;5.43;;
49890;SDS011;35780;55.568;37.492;2023-02-26T14:43:39;9.25;;;5.53;;
49890;SDS011;35780;55.568;37.492;2023-02-26T14:46:07;8.13;;;5.10;;
49890;SDS011;35780;55.568;37.492;2023-02-26T14:48:34;12.30;;;3.70;;
49890;SDS011;35780;55.568;37.492;2023-02-26T14:56:10;10.53;;;6.83;;
49890;SDS011;35780;55.568;37.492;2023-02-26T14:58:48;7.03;;;5.18;;
49890;SDS011;35780;55.568;37.492;2023-02-26T15:20:19;11.98;;;6.70;;
49890;SDS011;35780;55.568;37.492;2023-02-26T15:25:46;12.88;;;6.50;;
49890;SDS011;35780;55.568;37.492;2023-02-26T15:28:19;12.23;;;7.38;;
49890;SDS011;35780;55.568;37.492;2023-02-26T15:30:49;10.07;;;6.25;;
49890;SDS011;35780;55.568;37.492;2023-02-26T15:33:16;12.02;;;6.30;;
49890;SDS011;35780;55.568;37.492;2023-02-26T15:35:44;16.30;;;7.95;;
49890;SDS011;35780;55.568;37.492;2023-02-26T15:38:13;9.35;;;6.07;;
49890;SDS011;35780;55.568;37.492;2023-02-26T15:40:38;12.77;;;6.95;;
49890;SDS011;35780;55.568;37.492;2023-02-26T15:43:04;14.55;;;9.20;;
49890;SDS011;35780;55.568;37.492;2023-02-26T15:48:36;14.13;;;7.63;;
49890;SDS011;35780;55.568;37.492;2023-02-26T15:51:07;10.73;;;7.70;;
49890;SDS011;35780;55.568;37.492;2023-02-26T15:53:36;12.88;;;8.02;;
49890;SDS011;35780;55.568;37.492;2023-02-26T15:56:08;13.80;;;9.00;;
49890;SDS011;35780;55.568;37.492;2023-02-26T15:58:38;9.70;;;7.03;;
49890;SDS011;35780;55.568;37.492;2023-02-26T16:01:19;14.23;;;8.30;;
49890;SDS011;35780;55.568;37.492;2023-02-26T16:03:46;10.55;;;6.55;;
49890;SDS011;35780;55.568;37.492;2023-02-26T16:06:16;9.07;;;6.25;;
49890;SDS011;35780;55.568;37.492;2023-02-26T16:08:43;11.25;;;7.43;;
49890;SDS011;35780;55.568;37.492;2023-02-26T16:11:09;10.98;;;7.00;;
49890;SDS011;35780;55.568;37.492;2023-02-26T16:13:35;12.02;;;7.10;;
49890;SDS011;35780;55.568;37.492;2023-02-26T16:16:04;13.55;;;8.27;;
49890;SDS011;35780;55.568;37.492;2023-02-26T16:18:36;12.57;;;7.68;;
49890;SDS011;35780;55.568;37.492;2023-02-26T16:21:04;11.90;;;6.80;;
49890;SDS011;35780;55.568;37.492;2023-02-26T16:26:12;12.23;;;7.07;;
49890;SDS011;35780;55.568;37.492;2023-02-26T16:28:42;17.73;;;7.72;;
49890;SDS011;35780;55.568;37.492;2023-02-26T16:31:14;9.82;;;6.30;;
49890;SDS011;35780;55.568;37.492;2023-02-26T16:33:48;11.43;;;7.13;;
49890;SDS011;35780;55.568;37.492;2023-02-26T16:36:28;13.55;;;7.28;;
49890;SDS011;35780;55.568;37.492;2023-02-26T16:38:57;9.05;;;5.40;;
49890;SDS011;35780;55.568;37.492;2023-02-26T16:41:24;14.52;;;7.75;;
49890;SDS011;35780;55.568;37.492;2023-02-26T16:43:52;13.68;;;7.28;;
49890;SDS011;35780;55.568;37.492;2023-02-26T16:46:35;11.40;;;7.13;;
49890;SDS011;35780;55.568;37.492;2023-02-26T16:52:05;13.43;;;6.43;;
49890;SDS011;35780;55.568;37.492;2023-02-26T16:54:31;12.32;;;6.90;;
49890;SDS011;35780;55.568;37.492;2023-02-26T17:00:10;10.48;;;6.43;;
49890;SDS011;35780;55.568;37.492;2023-02-26T17:02:46;10.13;;;6.00;;
49890;SDS011;35780;55.568;37.492;2023-02-26T17:05:20;10.68;;;6.05;;
49890;SDS011;35780;55.568;37.492;2023-02-26T17:08:00;12.30;;;7.18;;
49890;SDS011;35780;55.568;37.492;2023-02-26T17:10:39;63.00;;;8.63;;
49890;SDS011;35780;55.568;37.492;2023-02-26T17:13:13;10.98;;;6.45;;
49890;SDS011;35780;55.568;37.492;2023-02-26T17:15:41;10.35;;;6.18;;
49890;SDS011;35780;55.568;37.492;2023-02-26T17:18:08;11.90;;;7.40;;
49890;SDS011;35780;55.568;37.492;2023-02-26T17:20:34;40.90;;;8.07;;
49890;SDS011;35780;55.568;37.492;2023-02-26T17:23:01;11.23;;;6.22;;
49890;SDS011;35780;55.568;37.492;2023-02-26T17:25:31;15.90;;;7.63;;
49890;SDS011;35780;55.568;37.492;2023-02-26T17:28:05;14.00;;;6.90;;
49890;SDS011;35780;55.568;37.492;2023-02-26T17:30:31;12.35;;;7.43;;
49890;SDS011;35780;55.568;37.492;2023-02-26T17:32:59;12.02;;;6.95;;
49890;SDS011;35780;55.568;37.492;2023-02-26T17:35:27;8.25;;;4.55;;
49890;SDS011;35780;55.568;37.492;2023-02-26T17:37:53;9.82;;;5.50;;
49890;SDS011;35780;55.568;37.492;2023-02-26T17:42:52;12.68;;;6.55;;
49890;SDS011;35780;55.568;37.492;2023-02-26T17:45:18;13.95;;;8.15;;
49890;SDS011;35780;55.568;37.492;2023-02-26T17:47:46;8.82;;;5.78;;
49890;SDS011;35780;55.568;37.492;2023-02-26T17:53:01;10.13;;;6.82;;
49890;SDS011;35780;55.568;37.492;2023-02-26T17:55:28;11.93;;;7.20;;
49890;SDS011;35780;55.568;37.492;2023-02-26T17:57:54;9.55;;;5.60;;
49890;SDS011;35780;55.568;37.492;2023-02-26T18:00:20;10.65;;;6.80;;
49890;SDS011;35780;55.568;37.492;2023-02-26T18:02:47;10.93;;;6.18;;
49890;SDS011;35780;55.568;37.492;2023-02-26T18:05:14;12.30;;;5.63;;
49890;SDS011;35780;55.568;37.492;2023-02-26T18:07:40;9.07;;;5.40;;
49890;SDS011;35780;55.568;37.492;2023-02-26T18:10:06;9.25;;;5.70;;
49890;SDS011;35780;55.568;37.492;2023-02-26T18:12:35;11.10;;;6.78;;
49890;SDS011;35780;55.568;37.492;2023-02-26T18:15:02;14.07;;;7.45;;
49890;SDS011;35780;55.568;37.492;2023-02-26T18:17:30;10.88;;;6.43;;
49890;SDS011;35780;55.568;37.492;2023-02-26T18:19:55;12.60;;;6.57;;
49890;SDS011;35780;55.568;37.492;2023-02-26T18:22:22;10.60;;;6.28;;
49890;SDS011;35780;55.568;37.492;2023-02-26T18:24:49;10.18;;;6.32;;
49890;SDS011;35780;55.568;37.492;2023-02-26T18:27:16;10.00;;;5.78;;